sensor_id;sensor_type;location;lat;lon;timestamp;temperature;humidity
67054;SHT31;53960;51.826;5.850;2023-08-20T00:00:06;19.80;88.35
67054;SHT31;53960;51.826;5.850;2023-08-20T00:02:33;19.72;88.62
67054;SHT31;53960;51.826;5.850;2023-08-20T00:05:01;19.75;88.33
67054;SHT31;53960;51.826;5.850;2023-08-20T00:07:30;19.83;88.27
67054;SHT31;53960;51.826;5.850;2023-08-20T00:09:55;19.78;88.56
67054;SHT31;53960;51.826;5.850;2023-08-20T00:12:20;19.80;88.71
67054;SHT31;53960;51.826;5.850;2023-08-20T00:14:58;19.80;88.83
67054;SHT31;53960;51.826;5.850;2023-08-20T00:17:29;19.80;88.68
67054;SHT31;53960;51.826;5.850;2023-08-20T00:19:55;19.76;88.57
67054;SHT31;53960;51.826;5.850;2023-08-20T00:22:25;19.76;88.42
67054;SHT31;53960;51.826;5.850;2023-08-20T00:24:51;19.75;88.30
67054;SHT31;53960;51.826;5.850;2023-08-20T00:27:17;19.75;88.15
67054;SHT31;53960;51.826;5.850;2023-08-20T00:29:43;19.62;88.60
67054;SHT31;53960;51.826;5.850;2023-08-20T00:32:08;19.62;88.32
67054;SHT31;53960;51.826;5.850;2023-08-20T00:34:34;19.61;88.24
67054;SHT31;53960;51.826;5.850;2023-08-20T00:37:00;19.62;88.05
67054;SHT31;53960;51.826;5.850;2023-08-20T00:39:26;19.66;87.95
67054;SHT31;53960;51.826;5.850;2023-08-20T00:41:52;19.62;87.98
67054;SHT31;53960;51.826;5.850;2023-08-20T00:44:18;19.61;87.87
67054;SHT31;53960;51.826;5.850;2023-08-20T00:46:43;19.54;87.93
67054;SHT31;53960;51.826;5.850;2023-08-20T00:49:09;19.54;88.07
67054;SHT31;53960;51.826;5.850;2023-08-20T00:51:35;19.48;88.14
67054;SHT31;53960;51.826;5.850;2023-08-20T00:54:02;19.39;88.19
67054;SHT31;53960;51.826;5.850;2023-08-20T00:56:28;19.32;88.53
67054;SHT31;53960;51.826;5.850;2023-08-20T00:58:54;19.42;88.46
67054;SHT31;53960;51.826;5.850;2023-08-20T01:01:21;19.47;88.22
67054;SHT31;53960;51.826;5.850;2023-08-20T01:03:46;19.34;88.85
67054;SHT31;53960;51.826;5.850;2023-08-20T01:06:31;19.36;88.85
67054;SHT31;53960;51.826;5.850;2023-08-20T01:12:11;19.51;88.72
67054;SHT31;53960;51.826;5.850;2023-08-20T01:14:38;19.51;88.78
67054;SHT31;53960;51.826;5.850;2023-08-20T01:17:04;19.61;88.61
67054;SHT31;53960;51.826;5.850;2023-08-20T01:19:29;19.55;88.47
67054;SHT31;53960;51.826;5.850;2023-08-20T01:24:54;19.48;89.09
67054;SHT31;53960;51.826;5.850;2023-08-20T01:30:14;19.57;88.92
67054;SHT31;53960;51.826;5.850;2023-08-20T01:32:40;19.55;89.11
67054;SHT31;53960;51.826;5.850;2023-08-20T01:35:11;19.49;89.31
67054;SHT31;53960;51.826;5.850;2023-08-20T01:37:38;19.55;89.20
67054;SHT31;53960;51.826;5.850;2023-08-20T01:40:04;19.61;88.81
67054;SHT31;53960;51.826;5.850;2023-08-20T01:42:32;19.61;88.61
67054;SHT31;53960;51.826;5.850;2023-08-20T01:44:57;19.61;88.60
67054;SHT31;53960;51.826;5.850;2023-08-20T01:47:22;19.62;88.35
67054;SHT31;53960;51.826;5.850;2023-08-20T01:49:48;19.63;88.24
67054;SHT31;53960;51.826;5.850;2023-08-20T01:52:13;19.61;88.29
67054;SHT31;53960;51.826;5.850;2023-08-20T01:54:38;19.59;88.44
67054;SHT31;53960;51.826;5.850;2023-08-20T01:57:04;19.57;88.43
67054;SHT31;53960;51.826;5.850;2023-08-20T01:59:29;19.61;88.23
67054;SHT31;53960;51.826;5.850;2023-08-20T02:01:54;19.65;87.94
67054;SHT31;53960;51.826;5.850;2023-08-20T02:04:20;19.59;87.88
67054;SHT31;53960;51.826;5.850;2023-08-20T02:06:45;19.57;87.91
67054;SHT31;53960;51.826;5.850;2023-08-20T02:09:10;19.58;87.77
67054;SHT31;53960;51.826;5.850;2023-08-20T02:11:36;19.49;87.46
67054;SHT31;53960;51.826;5.850;2023-08-20T02:14:02;19.52;87.26
67054;SHT31;53960;51.826;5.850;2023-08-20T02:16:27;19.48;87.23
67054;SHT31;53960;51.826;5.850;2023-08-20T02:18:53;19.48;87.36
67054;SHT31;53960;51.826;5.850;2023-08-20T02:21:18;19.48;87.49
67054;SHT31;53960;51.826;5.850;2023-08-20T02:23:44;19.45;87.61
67054;SHT31;53960;51.826;5.850;2023-08-20T02:26:10;19.45;87.60
67054;SHT31;53960;51.826;5.850;2023-08-20T02:28:35;19.44;87.56
67054;SHT31;53960;51.826;5.850;2023-08-20T02:31:04;19.38;87.45
67054;SHT31;53960;51.826;5.850;2023-08-20T02:33:29;19.30;87.60
67054;SHT31;53960;51.826;5.850;2023-08-20T02:35:55;19.34;87.67
67054;SHT31;53960;51.826;5.850;2023-08-20T02:38:20;19.34;87.69
67054;SHT31;53960;51.826;5.850;2023-08-20T02:40:45;19.30;87.82
67054;SHT31;53960;51.826;5.850;2023-08-20T02:43:11;19.31;87.77
67054;SHT31;53960;51.826;5.850;2023-08-20T02:45:42;19.28;87.63
67054;SHT31;53960;51.826;5.850;2023-08-20T02:48:08;19.27;87.56
67054;SHT31;53960;51.826;5.850;2023-08-20T02:50:34;19.27;87.70
67054;SHT31;53960;51.826;5.850;2023-08-20T02:52:59;19.24;88.12
67054;SHT31;53960;51.826;5.850;2023-08-20T02:55:25;19.25;88.03
67054;SHT31;53960;51.826;5.850;2023-08-20T02:57:50;19.21;88.23
67054;SHT31;53960;51.826;5.850;2023-08-20T03:00:15;19.34;88.12
67054;SHT31;53960;51.826;5.850;2023-08-20T03:02:41;19.31;88.15
67054;SHT31;53960;51.826;5.850;2023-08-20T03:05:08;19.31;88.27
67054;SHT31;53960;51.826;5.850;2023-08-20T03:07:34;19.32;88.14
67054;SHT31;53960;51.826;5.850;2023-08-20T03:09:59;19.21;88.49
67054;SHT31;53960;51.826;5.850;2023-08-20T03:12:24;19.24;88.43
67054;SHT31;53960;51.826;5.850;2023-08-20T03:14:50;19.20;88.48
67054;SHT31;53960;51.826;5.850;2023-08-20T03:17:15;19.14;88.52
67054;SHT31;53960;51.826;5.850;2023-08-20T03:19:56;19.04;88.70
67054;SHT31;53960;51.826;5.850;2023-08-20T03:22:22;18.99;88.71
67054;SHT31;53960;51.826;5.850;2023-08-20T03:24:48;19.03;88.43
67054;SHT31;53960;51.826;5.850;2023-08-20T03:27:13;18.89;88.91
67054;SHT31;53960;51.826;5.850;2023-08-20T03:29:39;18.93;88.76
67054;SHT31;53960;51.826;5.850;2023-08-20T03:32:04;18.96;88.43
67054;SHT31;53960;51.826;5.850;2023-08-20T03:34:30;19.01;88.15
67054;SHT31;53960;51.826;5.850;2023-08-20T03:36:55;19.00;88.00
67054;SHT31;53960;51.826;5.850;2023-08-20T03:39:20;18.89;88.24
67054;SHT31;53960;51.826;5.850;2023-08-20T03:41:46;18.89;88.33
67054;SHT31;53960;51.826;5.850;2023-08-20T03:44:11;18.76;88.37
67054;SHT31;53960;51.826;5.850;2023-08-20T03:46:36;18.80;88.29
67054;SHT31;53960;51.826;5.850;2023-08-20T03:49:02;18.72;88.21
67054;SHT31;53960;51.826;5.850;2023-08-20T03:51:28;18.69;88.30
67054;SHT31;53960;51.826;5.850;2023-08-20T03:53:53;18.69;88.56
67054;SHT31;53960;51.826;5.850;2023-08-20T03:56:18;18.63;88.42
67054;SHT31;53960;51.826;5.850;2023-08-20T03:58:44;18.60;88.52
67054;SHT31;53960;51.826;5.850;2023-08-20T04:01:09;18.62;88.33
67054;SHT31;53960;51.826;5.850;2023-08-20T04:03:34;18.56;88.50
67054;SHT31;53960;51.826;5.850;2023-08-20T04:05:59;18.55;88.58
67054;SHT31;53960;51.826;5.850;2023-08-20T04:08:25;18.55;88.55
67054;SHT31;53960;51.826;5.850;2023-08-20T04:10:51;18.55;88.35
67054;SHT31;53960;51.826;5.850;2023-08-20T04:13:17;18.49;88.46
67054;SHT31;53960;51.826;5.850;2023-08-20T04:15:42;18.46;88.40
67054;SHT31;53960;51.826;5.850;2023-08-20T04:18:08;18.48;88.22
67054;SHT31;53960;51.826;5.850;2023-08-20T04:20:33;18.39;88.44
67054;SHT31;53960;51.826;5.850;2023-08-20T04:22:59;18.38;88.40
67054;SHT31;53960;51.826;5.850;2023-08-20T04:25:24;18.43;88.30
67054;SHT31;53960;51.826;5.850;2023-08-20T04:27:49;18.46;88.11
67054;SHT31;53960;51.826;5.850;2023-08-20T04:30:15;18.43;87.97
67054;SHT31;53960;51.826;5.850;2023-08-20T04:32:40;18.41;87.92
67054;SHT31;53960;51.826;5.850;2023-08-20T04:35:06;18.31;88.42
67054;SHT31;53960;51.826;5.850;2023-08-20T04:37:31;18.32;88.27
67054;SHT31;53960;51.826;5.850;2023-08-20T04:39:57;18.31;88.38
67054;SHT31;53960;51.826;5.850;2023-08-20T04:42:22;18.25;88.22
67054;SHT31;53960;51.826;5.850;2023-08-20T04:44:48;18.31;88.31
67054;SHT31;53960;51.826;5.850;2023-08-20T04:47:13;18.29;88.21
67054;SHT31;53960;51.826;5.850;2023-08-20T04:49:39;18.32;88.23
67054;SHT31;53960;51.826;5.850;2023-08-20T04:52:04;18.19;88.48
67054;SHT31;53960;51.826;5.850;2023-08-20T04:54:30;18.18;88.73
67054;SHT31;53960;51.826;5.850;2023-08-20T04:56:55;18.22;88.54
67054;SHT31;53960;51.826;5.850;2023-08-20T04:59:20;18.24;88.63
67054;SHT31;53960;51.826;5.850;2023-08-20T05:01:46;18.22;88.59
67054;SHT31;53960;51.826;5.850;2023-08-20T05:04:11;18.26;88.84
67054;SHT31;53960;51.826;5.850;2023-08-20T05:06:37;18.31;88.68
67054;SHT31;53960;51.826;5.850;2023-08-20T05:09:02;18.33;88.67
67054;SHT31;53960;51.826;5.850;2023-08-20T05:11:28;18.32;88.29
67054;SHT31;53960;51.826;5.850;2023-08-20T05:13:56;18.29;88.45
67054;SHT31;53960;51.826;5.850;2023-08-20T05:16:22;18.24;88.69
67054;SHT31;53960;51.826;5.850;2023-08-20T05:18:47;18.29;88.59
67054;SHT31;53960;51.826;5.850;2023-08-20T05:21:13;18.32;88.61
67054;SHT31;53960;51.826;5.850;2023-08-20T05:23:39;18.32;88.60
67054;SHT31;53960;51.826;5.850;2023-08-20T05:26:06;18.32;88.78
67054;SHT31;53960;51.826;5.850;2023-08-20T05:28:32;18.38;88.66
67054;SHT31;53960;51.826;5.850;2023-08-20T05:30:58;18.41;88.60
67054;SHT31;53960;51.826;5.850;2023-08-20T05:33:24;18.39;88.39
67054;SHT31;53960;51.826;5.850;2023-08-20T05:35:49;18.35;88.55
67054;SHT31;53960;51.826;5.850;2023-08-20T05:38:15;18.43;88.55
67054;SHT31;53960;51.826;5.850;2023-08-20T05:40:41;18.43;88.59
67054;SHT31;53960;51.826;5.850;2023-08-20T05:43:06;18.46;88.44
67054;SHT31;53960;51.826;5.850;2023-08-20T05:45:31;18.52;88.36
67054;SHT31;53960;51.826;5.850;2023-08-20T05:47:57;18.53;88.46
67054;SHT31;53960;51.826;5.850;2023-08-20T05:50:22;18.48;88.98
67054;SHT31;53960;51.826;5.850;2023-08-20T05:52:48;18.51;88.90
67054;SHT31;53960;51.826;5.850;2023-08-20T05:55:13;18.53;89.08
67054;SHT31;53960;51.826;5.850;2023-08-20T05:57:39;18.60;89.30
67054;SHT31;53960;51.826;5.850;2023-08-20T06:00:05;18.60;89.21
67054;SHT31;53960;51.826;5.850;2023-08-20T06:02:30;18.63;89.24
67054;SHT31;53960;51.826;5.850;2023-08-20T06:04:56;18.69;89.27
67054;SHT31;53960;51.826;5.850;2023-08-20T06:07:21;18.74;89.71
67054;SHT31;53960;51.826;5.850;2023-08-20T06:09:47;18.79;89.75
67054;SHT31;53960;51.826;5.850;2023-08-20T06:12:12;18.80;89.75
67054;SHT31;53960;51.826;5.850;2023-08-20T06:14:38;18.93;89.33
67054;SHT31;53960;51.826;5.850;2023-08-20T06:17:03;19.11;88.15
67054;SHT31;53960;51.826;5.850;2023-08-20T06:19:28;19.17;87.90
67054;SHT31;53960;51.826;5.850;2023-08-20T06:21:54;19.22;87.31
67054;SHT31;53960;51.826;5.850;2023-08-20T06:24:20;19.27;87.33
67054;SHT31;53960;51.826;5.850;2023-08-20T06:26:45;19.31;87.47
67054;SHT31;53960;51.826;5.850;2023-08-20T06:29:10;19.36;86.70
67054;SHT31;53960;51.826;5.850;2023-08-20T06:31:36;19.47;86.25
67054;SHT31;53960;51.826;5.850;2023-08-20T06:34:01;19.55;85.20
67054;SHT31;53960;51.826;5.850;2023-08-20T06:36:27;19.55;85.83
67054;SHT31;53960;51.826;5.850;2023-08-20T06:38:52;19.58;84.86
67054;SHT31;53960;51.826;5.850;2023-08-20T06:41:18;19.57;85.92
67054;SHT31;53960;51.826;5.850;2023-08-20T06:43:43;19.75;82.85
67054;SHT31;53960;51.826;5.850;2023-08-20T06:46:08;19.80;83.02
67054;SHT31;53960;51.826;5.850;2023-08-20T06:48:34;19.87;82.36
67054;SHT31;53960;51.826;5.850;2023-08-20T06:51:08;19.90;82.79
67054;SHT31;53960;51.826;5.850;2023-08-20T06:53:34;20.00;82.02
67054;SHT31;53960;51.826;5.850;2023-08-20T06:55:59;20.01;82.01
67054;SHT31;53960;51.826;5.850;2023-08-20T06:58:24;20.06;81.15
67054;SHT31;53960;51.826;5.850;2023-08-20T07:00:50;20.13;81.63
67054;SHT31;53960;51.826;5.850;2023-08-20T07:03:15;20.16;81.65
67054;SHT31;53960;51.826;5.850;2023-08-20T07:05:41;20.19;80.83
67054;SHT31;53960;51.826;5.850;2023-08-20T07:08:07;20.24;80.79
67054;SHT31;53960;51.826;5.850;2023-08-20T07:10:32;20.33;80.53
67054;SHT31;53960;51.826;5.850;2023-08-20T07:12:57;20.33;80.35
67054;SHT31;53960;51.826;5.850;2023-08-20T07:15:23;20.34;80.40
67054;SHT31;53960;51.826;5.850;2023-08-20T07:17:49;20.36;80.70
67054;SHT31;53960;51.826;5.850;2023-08-20T07:20:15;20.34;80.61
67054;SHT31;53960;51.826;5.850;2023-08-20T07:22:40;20.36;80.56
67054;SHT31;53960;51.826;5.850;2023-08-20T07:25:07;20.43;80.40
67054;SHT31;53960;51.826;5.850;2023-08-20T07:27:33;20.50;80.18
67054;SHT31;53960;51.826;5.850;2023-08-20T07:29:58;20.55;79.96
67054;SHT31;53960;51.826;5.850;2023-08-20T07:32:23;20.65;80.61
67054;SHT31;53960;51.826;5.850;2023-08-20T07:34:49;20.69;79.80
67054;SHT31;53960;51.826;5.850;2023-08-20T07:37:14;20.75;79.07
67054;SHT31;53960;51.826;5.850;2023-08-20T07:39:39;20.77;78.79
67054;SHT31;53960;51.826;5.850;2023-08-20T07:42:05;20.79;79.32
67054;SHT31;53960;51.826;5.850;2023-08-20T07:44:31;20.85;79.29
67054;SHT31;53960;51.826;5.850;2023-08-20T07:46:57;20.92;79.57
67054;SHT31;53960;51.826;5.850;2023-08-20T07:49:22;20.96;79.11
67054;SHT31;53960;51.826;5.850;2023-08-20T07:51:47;21.03;78.50
67054;SHT31;53960;51.826;5.850;2023-08-20T07:54:14;21.12;78.82
67054;SHT31;53960;51.826;5.850;2023-08-20T07:56:39;21.12;79.13
67054;SHT31;53960;51.826;5.850;2023-08-20T07:59:05;21.16;79.16
67054;SHT31;53960;51.826;5.850;2023-08-20T08:01:30;21.20;78.60
67054;SHT31;53960;51.826;5.850;2023-08-20T08:03:55;21.25;78.83
67054;SHT31;53960;51.826;5.850;2023-08-20T08:06:21;21.33;77.34
67054;SHT31;53960;51.826;5.850;2023-08-20T08:08:49;21.35;76.89
67054;SHT31;53960;51.826;5.850;2023-08-20T08:11:14;21.42;76.36
67054;SHT31;53960;51.826;5.850;2023-08-20T08:13:39;21.45;76.58
67054;SHT31;53960;51.826;5.850;2023-08-20T08:16:05;21.46;76.09
67054;SHT31;53960;51.826;5.850;2023-08-20T08:18:30;21.50;76.81
67054;SHT31;53960;51.826;5.850;2023-08-20T08:20:56;21.57;76.94
67054;SHT31;53960;51.826;5.850;2023-08-20T08:23:21;21.61;76.39
67054;SHT31;53960;51.826;5.850;2023-08-20T08:25:46;21.61;76.33
67054;SHT31;53960;51.826;5.850;2023-08-20T08:28:12;21.66;76.10
67054;SHT31;53960;51.826;5.850;2023-08-20T08:30:38;21.70;76.20
67054;SHT31;53960;51.826;5.850;2023-08-20T08:33:04;21.74;76.49
67054;SHT31;53960;51.826;5.850;2023-08-20T08:35:30;21.81;75.92
67054;SHT31;53960;51.826;5.850;2023-08-20T08:37:55;21.87;76.29
67054;SHT31;53960;51.826;5.850;2023-08-20T08:40:23;21.93;75.27
67054;SHT31;53960;51.826;5.850;2023-08-20T08:42:49;21.93;75.98
67054;SHT31;53960;51.826;5.850;2023-08-20T08:45:18;21.95;76.38
67054;SHT31;53960;51.826;5.850;2023-08-20T08:47:44;21.97;76.19
67054;SHT31;53960;51.826;5.850;2023-08-20T08:50:10;22.02;76.68
67054;SHT31;53960;51.826;5.850;2023-08-20T08:52:37;22.14;76.45
67054;SHT31;53960;51.826;5.850;2023-08-20T08:55:03;22.18;76.44
67054;SHT31;53960;51.826;5.850;2023-08-20T08:57:30;22.19;76.92
67054;SHT31;53960;51.826;5.850;2023-08-20T08:59:56;22.22;76.71
67054;SHT31;53960;51.826;5.850;2023-08-20T09:02:21;22.26;76.62
67054;SHT31;53960;51.826;5.850;2023-08-20T09:04:48;22.41;75.98
67054;SHT31;53960;51.826;5.850;2023-08-20T09:07:15;22.48;75.72
67054;SHT31;53960;51.826;5.850;2023-08-20T09:09:44;22.52;75.55
67054;SHT31;53960;51.826;5.850;2023-08-20T09:12:17;22.53;76.31
67054;SHT31;53960;51.826;5.850;2023-08-20T09:14:49;22.55;74.53
67054;SHT31;53960;51.826;5.850;2023-08-20T09:17:15;22.65;73.71
67054;SHT31;53960;51.826;5.850;2023-08-20T09:19:43;22.67;73.76
67054;SHT31;53960;51.826;5.850;2023-08-20T09:22:09;22.73;73.77
67054;SHT31;53960;51.826;5.850;2023-08-20T09:24:39;22.77;73.42
67054;SHT31;53960;51.826;5.850;2023-08-20T09:27:06;22.82;72.99
67054;SHT31;53960;51.826;5.850;2023-08-20T09:29:33;22.89;71.66
67054;SHT31;53960;51.826;5.850;2023-08-20T09:32:03;22.89;70.95
67054;SHT31;53960;51.826;5.850;2023-08-20T09:34:38;22.96;70.75
67054;SHT31;53960;51.826;5.850;2023-08-20T09:37:10;23.07;70.94
67054;SHT31;53960;51.826;5.850;2023-08-20T09:39:36;23.06;69.99
67054;SHT31;53960;51.826;5.850;2023-08-20T09:42:01;23.08;69.70
67054;SHT31;53960;51.826;5.850;2023-08-20T09:44:33;23.17;70.35
67054;SHT31;53960;51.826;5.850;2023-08-20T09:47:15;23.27;68.29
67054;SHT31;53960;51.826;5.850;2023-08-20T09:49:42;23.31;68.29
67054;SHT31;53960;51.826;5.850;2023-08-20T09:52:09;23.33;67.80
67054;SHT31;53960;51.826;5.850;2023-08-20T09:59:58;23.51;67.93
67054;SHT31;53960;51.826;5.850;2023-08-20T10:02:24;23.59;67.53
67054;SHT31;53960;51.826;5.850;2023-08-20T10:04:50;23.66;66.12
67054;SHT31;53960;51.826;5.850;2023-08-20T10:07:16;23.68;65.75
67054;SHT31;53960;51.826;5.850;2023-08-20T10:09:43;23.79;64.89
67054;SHT31;53960;51.826;5.850;2023-08-20T10:12:14;23.85;65.07
67054;SHT31;53960;51.826;5.850;2023-08-20T10:14:40;23.85;64.37
67054;SHT31;53960;51.826;5.850;2023-08-20T10:17:09;23.93;64.06
67054;SHT31;53960;51.826;5.850;2023-08-20T10:19:38;23.98;64.27
67054;SHT31;53960;51.826;5.850;2023-08-20T10:22:04;24.05;64.29
67054;SHT31;53960;51.826;5.850;2023-08-20T10:24:40;24.10;64.05
67054;SHT31;53960;51.826;5.850;2023-08-20T10:27:10;24.16;62.78
67054;SHT31;53960;51.826;5.850;2023-08-20T10:29:40;24.26;63.13
67054;SHT31;53960;51.826;5.850;2023-08-20T10:32:11;24.32;62.67
67054;SHT31;53960;51.826;5.850;2023-08-20T10:34:38;24.40;61.97
67054;SHT31;53960;51.826;5.850;2023-08-20T10:37:12;24.51;63.23
67054;SHT31;53960;51.826;5.850;2023-08-20T10:39:37;24.59;63.03
67054;SHT31;53960;51.826;5.850;2023-08-20T10:44:58;24.70;62.94
67054;SHT31;53960;51.826;5.850;2023-08-20T10:47:24;24.70;61.48
67054;SHT31;53960;51.826;5.850;2023-08-20T10:49:53;24.74;63.11
67054;SHT31;53960;51.826;5.850;2023-08-20T10:52:21;24.77;63.27
67054;SHT31;53960;51.826;5.850;2023-08-20T10:54:49;24.81;62.47
67054;SHT31;53960;51.826;5.850;2023-08-20T10:57:15;24.82;61.35
67054;SHT31;53960;51.826;5.850;2023-08-20T10:59:41;24.88;59.88
67054;SHT31;53960;51.826;5.850;2023-08-20T11:02:11;24.94;58.34
67054;SHT31;53960;51.826;5.850;2023-08-20T11:04:39;24.90;58.02
67054;SHT31;53960;51.826;5.850;2023-08-20T11:07:05;24.95;57.58
67054;SHT31;53960;51.826;5.850;2023-08-20T11:09:31;25.01;57.83
67054;SHT31;53960;51.826;5.850;2023-08-20T11:11:58;25.04;57.32
67054;SHT31;53960;51.826;5.850;2023-08-20T11:14:23;25.11;57.61
67054;SHT31;53960;51.826;5.850;2023-08-20T11:16:49;25.16;57.15
67054;SHT31;53960;51.826;5.850;2023-08-20T11:19:20;25.28;57.38
67054;SHT31;53960;51.826;5.850;2023-08-20T11:21:46;25.33;56.70
67054;SHT31;53960;51.826;5.850;2023-08-20T11:24:13;25.33;57.34
67054;SHT31;53960;51.826;5.850;2023-08-20T11:26:40;25.30;56.45
67054;SHT31;53960;51.826;5.850;2023-08-20T11:29:06;25.32;56.91
67054;SHT31;53960;51.826;5.850;2023-08-20T11:31:32;25.28;56.68
67054;SHT31;53960;51.826;5.850;2023-08-20T11:33:58;25.29;56.97
67054;SHT31;53960;51.826;5.850;2023-08-20T11:36:23;25.35;57.57
67054;SHT31;53960;51.826;5.850;2023-08-20T11:38:53;25.39;57.27
67054;SHT31;53960;51.826;5.850;2023-08-20T11:41:19;25.49;58.34
67054;SHT31;53960;51.826;5.850;2023-08-20T11:43:46;25.54;55.63
67054;SHT31;53960;51.826;5.850;2023-08-20T11:46:15;25.51;55.10
67054;SHT31;53960;51.826;5.850;2023-08-20T11:51:48;25.60;56.87
67054;SHT31;53960;51.826;5.850;2023-08-20T11:54:16;25.66;56.26
67054;SHT31;53960;51.826;5.850;2023-08-20T11:56:51;25.69;53.41
67054;SHT31;53960;51.826;5.850;2023-08-20T11:59:19;25.74;54.45
67054;SHT31;53960;51.826;5.850;2023-08-20T12:01:58;25.71;55.36
67054;SHT31;53960;51.826;5.850;2023-08-20T12:04:26;25.74;56.37
67054;SHT31;53960;51.826;5.850;2023-08-20T12:09:30;25.83;55.52
67054;SHT31;53960;51.826;5.850;2023-08-20T12:11:56;25.86;56.10
67054;SHT31;53960;51.826;5.850;2023-08-20T12:14:23;25.77;54.50
67054;SHT31;53960;51.826;5.850;2023-08-20T12:16:48;25.81;55.50
67054;SHT31;53960;51.826;5.850;2023-08-20T12:19:16;25.83;54.91
67054;SHT31;53960;51.826;5.850;2023-08-20T12:21:42;25.93;55.45
67054;SHT31;53960;51.826;5.850;2023-08-20T12:24:09;25.97;55.65
67054;SHT31;53960;51.826;5.850;2023-08-20T12:26:35;26.02;55.54
67054;SHT31;53960;51.826;5.850;2023-08-20T12:29:01;26.07;54.69
67054;SHT31;53960;51.826;5.850;2023-08-20T12:31:27;26.04;54.26
67054;SHT31;53960;51.826;5.850;2023-08-20T12:33:52;26.10;54.30
67054;SHT31;53960;51.826;5.850;2023-08-20T12:36:18;26.25;55.77
67054;SHT31;53960;51.826;5.850;2023-08-20T12:38:43;26.25;53.83
67054;SHT31;53960;51.826;5.850;2023-08-20T12:41:08;26.21;54.06
67054;SHT31;53960;51.826;5.850;2023-08-20T12:43:34;26.24;54.90
67054;SHT31;53960;51.826;5.850;2023-08-20T12:45:59;26.31;53.67
67054;SHT31;53960;51.826;5.850;2023-08-20T12:48:25;26.38;55.02
67054;SHT31;53960;51.826;5.850;2023-08-20T12:50:50;26.39;55.45
67054;SHT31;53960;51.826;5.850;2023-08-20T12:53:16;26.39;54.89
67054;SHT31;53960;51.826;5.850;2023-08-20T12:55:42;26.41;55.84
67054;SHT31;53960;51.826;5.850;2023-08-20T12:58:08;26.42;54.77
67054;SHT31;53960;51.826;5.850;2023-08-20T13:00:34;26.41;54.77
67054;SHT31;53960;51.826;5.850;2023-08-20T13:03:01;26.45;54.44
67054;SHT31;53960;51.826;5.850;2023-08-20T13:05:27;26.47;53.54
67054;SHT31;53960;51.826;5.850;2023-08-20T13:07:53;26.41;53.89
67054;SHT31;53960;51.826;5.850;2023-08-20T13:10:19;26.48;54.83
67054;SHT31;53960;51.826;5.850;2023-08-20T13:12:50;26.55;55.07
67054;SHT31;53960;51.826;5.850;2023-08-20T13:15:17;26.63;54.22
67054;SHT31;53960;51.826;5.850;2023-08-20T13:17:42;26.62;53.76
67054;SHT31;53960;51.826;5.850;2023-08-20T13:20:08;26.68;54.04
67054;SHT31;53960;51.826;5.850;2023-08-20T13:22:34;26.65;54.48
67054;SHT31;53960;51.826;5.850;2023-08-20T13:24:59;26.66;54.27
67054;SHT31;53960;51.826;5.850;2023-08-20T13:27:25;26.63;54.52
67054;SHT31;53960;51.826;5.850;2023-08-20T13:29:50;26.65;54.38
67054;SHT31;53960;51.826;5.850;2023-08-20T13:32:16;26.69;55.54
67054;SHT31;53960;51.826;5.850;2023-08-20T13:34:41;26.66;54.28
67054;SHT31;53960;51.826;5.850;2023-08-20T13:37:06;26.71;54.88
67054;SHT31;53960;51.826;5.850;2023-08-20T13:39:32;26.68;54.89
67054;SHT31;53960;51.826;5.850;2023-08-20T13:41:57;26.66;53.97
67054;SHT31;53960;51.826;5.850;2023-08-20T13:44:23;26.52;55.01
67054;SHT31;53960;51.826;5.850;2023-08-20T13:46:48;26.52;55.25
67054;SHT31;53960;51.826;5.850;2023-08-20T13:49:13;26.56;54.76
67054;SHT31;53960;51.826;5.850;2023-08-20T13:51:39;26.65;54.61
67054;SHT31;53960;51.826;5.850;2023-08-20T13:54:04;26.63;54.75
67054;SHT31;53960;51.826;5.850;2023-08-20T13:56:29;26.53;54.55
67054;SHT31;53960;51.826;5.850;2023-08-20T13:58:55;26.58;55.35
67054;SHT31;53960;51.826;5.850;2023-08-20T14:01:20;26.59;54.94
67054;SHT31;53960;51.826;5.850;2023-08-20T14:03:46;26.58;55.61
67054;SHT31;53960;51.826;5.850;2023-08-20T14:06:11;26.65;55.17
67054;SHT31;53960;51.826;5.850;2023-08-20T14:08:36;26.52;55.09
67054;SHT31;53960;51.826;5.850;2023-08-20T14:11:02;26.62;55.93
67054;SHT31;53960;51.826;5.850;2023-08-20T14:13:28;26.73;55.57
67054;SHT31;53960;51.826;5.850;2023-08-20T14:15:53;26.66;54.91
67054;SHT31;53960;51.826;5.850;2023-08-20T14:18:19;26.75;55.71
67054;SHT31;53960;51.826;5.850;2023-08-20T14:20:44;26.82;55.46
67054;SHT31;53960;51.826;5.850;2023-08-20T14:23:09;26.83;54.58
67054;SHT31;53960;51.826;5.850;2023-08-20T14:25:35;26.75;54.44
67054;SHT31;53960;51.826;5.850;2023-08-20T14:28:00;26.78;54.99
67054;SHT31;53960;51.826;5.850;2023-08-20T14:30:26;26.72;55.17
67054;SHT31;53960;51.826;5.850;2023-08-20T14:32:52;26.78;55.85
67054;SHT31;53960;51.826;5.850;2023-08-20T14:35:18;26.86;55.30
67054;SHT31;53960;51.826;5.850;2023-08-20T14:37:44;26.87;55.07
67054;SHT31;53960;51.826;5.850;2023-08-20T14:40:10;26.95;55.14
67054;SHT31;53960;51.826;5.850;2023-08-20T14:42:36;26.92;55.23
67054;SHT31;53960;51.826;5.850;2023-08-20T14:45:01;26.93;54.66
67054;SHT31;53960;51.826;5.850;2023-08-20T14:47:29;26.95;54.92
67054;SHT31;53960;51.826;5.850;2023-08-20T14:49:54;26.90;55.01
67054;SHT31;53960;51.826;5.850;2023-08-20T14:52:20;27.02;54.88
67054;SHT31;53960;51.826;5.850;2023-08-20T14:54:45;27.07;55.37
67054;SHT31;53960;51.826;5.850;2023-08-20T14:57:11;27.17;55.88
67054;SHT31;53960;51.826;5.850;2023-08-20T14:59:36;27.14;55.23
67054;SHT31;53960;51.826;5.850;2023-08-20T15:02:02;27.24;55.42
67054;SHT31;53960;51.826;5.850;2023-08-20T15:04:27;27.22;55.77
67054;SHT31;53960;51.826;5.850;2023-08-20T15:06:52;27.16;55.32
67054;SHT31;53960;51.826;5.850;2023-08-20T15:09:18;27.14;54.58
67054;SHT31;53960;51.826;5.850;2023-08-20T15:11:45;27.22;54.79
67054;SHT31;53960;51.826;5.850;2023-08-20T15:14:11;27.29;54.81
67054;SHT31;53960;51.826;5.850;2023-08-20T15:16:36;27.36;54.11
67054;SHT31;53960;51.826;5.850;2023-08-20T15:19:01;27.41;54.17
67054;SHT31;53960;51.826;5.850;2023-08-20T15:21:27;27.24;53.80
67054;SHT31;53960;51.826;5.850;2023-08-20T15:23:52;27.00;54.38
67054;SHT31;53960;51.826;5.850;2023-08-20T15:26:18;27.24;54.41
67054;SHT31;53960;51.826;5.850;2023-08-20T15:28:43;27.36;55.15
67054;SHT31;53960;51.826;5.850;2023-08-20T15:31:08;27.41;54.98
67054;SHT31;53960;51.826;5.850;2023-08-20T15:33:34;27.31;54.99
67054;SHT31;53960;51.826;5.850;2023-08-20T15:35:59;27.33;54.58
67054;SHT31;53960;51.826;5.850;2023-08-20T15:38:25;27.43;55.63
67054;SHT31;53960;51.826;5.850;2023-08-20T15:40:52;27.46;55.15
67054;SHT31;53960;51.826;5.850;2023-08-20T15:43:18;27.53;54.76
67054;SHT31;53960;51.826;5.850;2023-08-20T15:45:43;27.58;55.17